1891 Tropical Storm NOT_NAMED (1891297N14279)


IBTrACS version v04r00. Visit IBTrACS website for data access.
Please direct all questions to the IBTrACS Q and A forum

Storm track - Intensity - Wind Radii - Intensity Data - Source Data - All data

Summary Information

Storm ID 1891297N14279
Start Oct 23 12Z
Landfall Oct 24 06Z
Max Intensity 55 kt (Oct 27 06Z)
End Oct 29 12Z
ATCF IDs
Track status Best track data.

Storm track plot

Map of storm track

Intensity plots

Map of storm track

Radial wind information

No radial wind information for this storm


Position and Intensity Table

BASIN ISO_TIME_________ NATURE LAT LON MLC WIND
degrees north degrees east kts
NA 1891-10-23 12:00:00 TS 14.00 -81.50 30
NA 15:00:00 TS 14.16 -81.80 30
NA 18:00:00 TS 14.30 -82.10 30
NA 21:00:00 TS 14.40 -82.40 30
NA 1891-10-24 00:00:00 TS 14.50 -82.70 30
NA 03:00:00 TS 14.65 -82.99 30
NA 06:00:00 TS 14.80 -83.30 30
NA 09:00:00 TS 14.90 -83.65 30
NA 12:00:00 TS 15.00 -84.00 30
NA 15:00:00 TS 15.15 -84.31 30
NA 18:00:00 TS 15.30 -84.60 30
NA 21:00:00 TS 15.40 -84.85 30
NA 1891-10-25 00:00:00 TS 15.50 -85.10 30
NA 03:00:00 TS 15.65 -85.40 30
NA 06:00:00 TS 15.80 -85.70 30
NA 09:00:00 TS 15.91 -85.97 30
NA 12:00:00 TS 16.00 -86.20 30
NA 15:00:00 TS 16.11 -86.36 30
NA 18:00:00 TS 16.20 -86.50 30
NA 21:00:00 TS 16.26 -86.69 30
NA 1891-10-26 00:00:00 TS 16.30 -86.90 30
NA 03:00:00 TS 16.35 -87.11 32
NA 06:00:00 TS 16.40 -87.30 35
NA 09:00:00 TS 16.43 -87.43 37
NA 12:00:00 TS 16.50 -87.50 40
NA 15:00:00 TS 16.64 -87.53 42
NA 18:00:00 TS 16.80 -87.50 45
NA 21:00:00 TS 16.90 -87.43 47
NA 1891-10-27 00:00:00 TS 17.00 -87.30 50
NA 03:00:00 TS 17.15 -87.12 52
NA 06:00:00 TS 17.30 -86.90 55
NA 09:00:00 TS 17.40 -86.73 55
NA 12:00:00 TS 17.50 -86.50 55
NA 15:00:00 TS 17.64 -86.12 55
NA 18:00:00 TS 17.80 -85.70 55
NA 21:00:00 TS 17.94 -85.35 55
NA 1891-10-28 00:00:00 TS 18.10 -85.00 55
NA 03:00:00 TS 18.30 -84.60 55
NA 06:00:00 TS 18.50 -84.20 55
NA 09:00:00 TS 18.66 -83.85 55
NA 12:00:00 TS 18.80 -83.50 55
NA 15:00:00 TS 18.94 -83.10 55
NA 18:00:00 TS 19.10 -82.70 55
NA 21:00:00 TS 19.26 -82.36 55
NA 1891-10-29 00:00:00 TS 19.50 -82.00 55
NA 03:00:00 TS 19.88 -81.52 50
NA 06:00:00 TS 20.30 -81.00 45
NA 09:00:00 TS 20.67 -80.49 37
NA 12:00:00 TS 21.00 -80.00 30

Source Information

Agency Information
USA
TOKYO
CMA
HKO
NEWDELHI
REUNION
BOM
NADI
WELLINGTON
DS824
TD9636
TD9635
NEUMANN
MLC

All available IBTrACS Data

SEASON BASIN SUBBASIN ISO_TIME_________ NATURE LAT LON DIST2LAND LANDFALL IFLAG USA SSHS MLC LAT MLC LON MLC CLASS MLC WIND STORM SPEED STORM DIR
Year degrees north degrees east km km 1 degrees north degrees east kts kts degrees
1891 NA CS 1891-10-23 12:00:00 TS 14.00 -81.50 186 151 _____________O -1 14.00 -81.50 TD 30 7 299
1891 NA CS 15:00:00 TS 14.16 -81.80 151 118 _____________P -1 14.16 -81.80 TD 30 7 297
1891 NA CS 18:00:00 TS 14.30 -82.10 118 86 _____________O -1 14.30 -82.10 TD 30 6 292
1891 NA CS 21:00:00 TS 14.40 -82.40 86 58 _____________P -1 14.40 -82.40 TD 30 6 289
1891 NA CS 1891-10-24 00:00:00 TS 14.50 -82.70 58 32 _____________O -1 14.50 -82.70 TD 30 6 294
1891 NA CS 03:00:00 TS 14.65 -82.99 32 0 _____________P -1 14.65 -82.99 TD 30 7 297
1891 NA CS 06:00:00 TS 14.80 -83.30 0 0 _____________O -1 14.80 -83.30 TD 30 7 291
1891 NA NA 09:00:00 TS 14.90 -83.65 0 0 _____________P -1 14.90 -83.65 TD 30 7 286
1891 NA NA 12:00:00 TS 15.00 -84.00 0 0 _____________O -1 15.00 -84.00 TD 30 7 291
1891 NA NA 15:00:00 TS 15.15 -84.31 0 0 _____________P -1 15.15 -84.31 TD 30 7 297
1891 NA NA 18:00:00 TS 15.30 -84.60 0 0 _____________O -1 15.30 -84.60 TD 30 6 296
1891 NA NA 21:00:00 TS 15.40 -84.85 0 0 _____________P -1 15.40 -84.85 TD 30 5 293
1891 NA NA 1891-10-25 00:00:00 TS 15.50 -85.10 0 0 _____________O -1 15.50 -85.10 TD 30 6 295
1891 NA NA 03:00:00 TS 15.65 -85.40 0 0 _____________P -1 15.65 -85.40 TD 30 7 297
1891 NA NA 06:00:00 TS 15.80 -85.70 0 0 _____________O -1 15.80 -85.70 TD 30 6 295
1891 NA CS 09:00:00 TS 15.91 -85.97 10 10 _____________P -1 15.91 -85.97 TD 30 5 293
1891 NA CS 12:00:00 TS 16.00 -86.20 22 22 _____________O -1 16.00 -86.20 TD 30 4 298
1891 NA CS 15:00:00 TS 16.11 -86.36 33 33 _____________P -1 16.11 -86.36 TD 30 4 305
1891 NA CS 18:00:00 TS 16.20 -86.50 46 46 _____________O -1 16.20 -86.50 TD 30 4 295
1891 NA CS 21:00:00 TS 16.26 -86.69 59 55 _____________P -1 16.26 -86.69 TD 30 4 285
1891 NA CS 1891-10-26 00:00:00 TS 16.30 -86.90 55 55 _____________O -1 16.30 -86.90 TD 30 4 283
1891 NA CS 03:00:00 TS 16.35 -87.11 67 67 _____________P -1 16.35 -87.11 TD 32 4 285
1891 NA CS 06:00:00 TS 16.40 -87.30 67 67 _____________O -1 16.40 -87.30 TS 35 3 286
1891 NA CS 09:00:00 TS 16.43 -87.43 67 67 _____________P -1 16.43 -87.43 TS 37 2 297
1891 NA CS 12:00:00 TS 16.50 -87.50 78 78 _____________O -1 16.50 -87.50 TS 40 2 334
1891 NA CS 15:00:00 TS 16.64 -87.53 86 77 _____________P -1 16.64 -87.53 TS 42 3 0
1891 NA CS 18:00:00 TS 16.80 -87.50 77 75 _____________O -1 16.80 -87.50 TS 45 3 20
1891 NA CS 21:00:00 TS 16.90 -87.43 85 85 _____________P -1 16.90 -87.43 TS 47 3 44
1891 NA CS 1891-10-27 00:00:00 TS 17.00 -87.30 95 95 _____________O -1 17.00 -87.30 TS 50 4 50
1891 NA CS 03:00:00 TS 17.15 -87.12 119 119 _____________P -1 17.15 -87.12 TS 52 5 52
1891 NA CS 06:00:00 TS 17.30 -86.90 138 138 _____________O -1 17.30 -86.90 TS 55 4 56
1891 NA CS 09:00:00 TS 17.40 -86.73 146 146 _____________P -1 17.40 -86.73 TS 55 4 62
1891 NA CS 12:00:00 TS 17.50 -86.50 158 158 _____________O -1 17.50 -86.50 TS 55 6 67
1891 NA CS 15:00:00 TS 17.64 -86.12 191 188 _____________P -1 17.64 -86.12 TS 55 8 68
1891 NA CS 18:00:00 TS 17.80 -85.70 212 212 _____________O -1 17.80 -85.70 TS 55 8 68
1891 NA CS 21:00:00 TS 17.94 -85.35 223 223 _____________P -1 17.94 -85.35 TS 55 7 66
1891 NA CS 1891-10-28 00:00:00 TS 18.10 -85.00 246 246 _____________O -1 18.10 -85.00 TS 55 8 63
1891 NA CS 03:00:00 TS 18.30 -84.60 268 268 _____________P -1 18.30 -84.60 TS 55 9 62
1891 NA CS 06:00:00 TS 18.50 -84.20 295 295 _____________O -1 18.50 -84.20 TS 55 8 63
1891 NA CS 09:00:00 TS 18.66 -83.85 319 299 _____________P -1 18.66 -83.85 TS 55 7 66
1891 NA CS 12:00:00 TS 18.80 -83.50 299 281 _____________O -1 18.80 -83.50 TS 55 8 68
1891 NA CS 15:00:00 TS 18.94 -83.10 281 257 _____________P -1 18.94 -83.10 TS 55 8 68
1891 NA CS 18:00:00 TS 19.10 -82.70 257 238 _____________O -1 19.10 -82.70 TS 55 8 65
1891 NA CS 21:00:00 TS 19.26 -82.36 238 224 _____________P -1 19.26 -82.36 TS 55 8 59
1891 NA CS 1891-10-29 00:00:00 TS 19.50 -82.00 228 209 _____________O -1 19.50 -82.00 TS 55 10 52
1891 NA CS 03:00:00 TS 19.88 -81.52 215 187 _____________P -1 19.88 -81.52 TS 50 12 50
1891 NA CS 06:00:00 TS 20.30 -81.00 187 123 _____________O -1 20.30 -81.00 TS 45 13 51
1891 NA CS 09:00:00 TS 20.67 -80.49 123 78 _____________P -1 20.67 -80.49 TS 37 12 53
1891 NA CS 12:00:00 TS 21.00 -80.00 78 _____________O -1 21.00 -80.00 TD 30 11 54